createdAt,value
2022-08-25T00:02:05.076Z,100579.28
2022-08-25T00:04:35.444Z,100578.72
2022-08-25T00:07:05.720Z,100572.44
2022-08-25T00:09:35.274Z,100581.50
2022-08-25T00:12:05.066Z,100584.62
2022-08-25T00:14:35.972Z,100580.34
2022-08-25T00:17:06.719Z,100583.28
2022-08-25T00:19:36.881Z,100587.38
2022-08-25T00:22:05.407Z,100584.25
2022-08-25T00:24:33.130Z,100581.38
2022-08-25T00:27:01.923Z,100583.41
2022-08-25T00:29:31.354Z,100584.28
2022-08-25T00:31:59.496Z,100576.56
2022-08-25T00:34:33.585Z,100582.50
2022-08-25T00:37:04.172Z,100576.66
2022-08-25T00:39:31.918Z,100579.97
2022-08-25T00:42:00.175Z,100566.37
2022-08-25T00:44:30.216Z,100573.00
2022-08-25T00:47:01.111Z,100571.94
2022-08-25T00:49:39.228Z,100570.84
2022-08-25T00:52:18.243Z,100578.72
2022-08-25T00:54:52.376Z,100574.94
2022-08-25T00:57:34.514Z,100575.03
2022-08-25T01:00:15.836Z,100574.41
2022-08-25T01:02:43.716Z,100575.56
2022-08-25T01:05:12.659Z,100573.56
2022-08-25T01:07:43.615Z,100570.13
2022-08-25T01:10:14.097Z,100572.09
2022-08-25T01:12:42.092Z,100568.87
2022-08-25T01:15:12.184Z,100570.38
2022-08-25T01:17:50.382Z,100565.66
2022-08-25T01:20:20.789Z,100563.31
2022-08-25T01:22:55.208Z,100563.75
2022-08-25T01:25:35.215Z,100556.13
2022-08-25T01:28:05.309Z,100564.19
2022-08-25T01:30:33.765Z,100565.41
2022-08-25T01:33:07.469Z,100562.75
2022-08-25T01:35:36.576Z,100564.94
2022-08-25T01:38:05.719Z,100565.13
2022-08-25T01:40:35.271Z,100573.81
2022-08-25T01:43:15.168Z,100565.66
2022-08-25T01:45:47.305Z,100564.72
2022-08-25T01:48:16.319Z,100575.63
2022-08-25T01:50:44.312Z,100563.88
2022-08-25T01:53:19.976Z,100561.88
2022-08-25T01:56:01.371Z,100565.50
2022-08-25T01:58:36.137Z,100561.63
2022-08-25T02:01:08.565Z,100558.03
2022-08-25T02:03:42.368Z,100573.50
2022-08-25T02:06:14.849Z,100560.34
2022-08-25T02:08:43.626Z,100563.09
2022-08-25T02:11:13.903Z,100557.94
2022-08-25T02:13:42.255Z,100556.41
2022-08-25T02:16:15.204Z,100551.84
2022-08-25T02:18:43.224Z,100558.47
2022-08-25T02:21:11.466Z,100549.34
2022-08-25T02:23:39.055Z,100557.50
2022-08-25T02:26:07.059Z,100548.50
2022-08-25T02:28:35.120Z,100550.81
2022-08-25T02:31:04.494Z,100555.63
2022-08-25T02:33:32.481Z,100546.25
2022-08-25T02:36:02.072Z,100548.00
2022-08-25T02:38:29.968Z,100547.56
2022-08-25T02:40:59.907Z,100544.91
2022-08-25T02:43:29.181Z,100557.94
2022-08-25T02:45:56.933Z,100547.56
2022-08-25T02:48:25.008Z,100550.06
2022-08-25T02:50:54.093Z,100552.28
2022-08-25T02:53:21.880Z,100549.44
2022-08-25T02:55:49.991Z,100551.06
2022-08-25T02:58:17.870Z,100546.19
2022-08-25T03:00:47.285Z,100543.25
2022-08-25T03:03:15.440Z,100542.66
2022-08-25T03:05:43.652Z,100543.44
2022-08-25T03:08:11.600Z,100547.31
2022-08-25T03:10:39.871Z,100543.44
2022-08-25T03:13:07.667Z,100552.22
2022-08-25T03:15:37.950Z,100547.12
2022-08-25T03:18:08.643Z,100540.59
2022-08-25T03:20:36.470Z,100552.84
2022-08-25T03:23:05.442Z,100537.69
2022-08-25T03:25:52.572Z,100541.19
2022-08-25T03:28:28.931Z,100542.66
2022-08-25T03:30:59.212Z,100549.59
2022-08-25T03:33:28.654Z,100549.44
2022-08-25T03:35:56.926Z,100545.91
2022-08-25T03:38:25.968Z,100547.81
2022-08-25T03:40:54.385Z,100544.03
2022-08-25T03:43:22.237Z,100549.50
2022-08-25T03:45:50.203Z,100540.84
2022-08-25T03:48:18.179Z,100542.03
2022-08-25T03:50:50.763Z,100545.66
2022-08-25T03:53:20.738Z,100546.34
2022-08-25T03:55:48.626Z,100536.56
2022-08-25T03:58:17.109Z,100538.53
2022-08-25T04:00:45.103Z,100546.16
2022-08-25T04:03:13.112Z,100548.56
2022-08-25T04:05:40.938Z,100550.91
2022-08-25T04:08:09.277Z,100542.50
2022-08-25T04:10:37.707Z,100541.59
2022-08-25T04:13:06.589Z,100544.00
2022-08-25T04:15:34.576Z,100547.97
2022-08-25T04:18:03.394Z,100546.91
2022-08-25T04:20:31.025Z,100548.31
2022-08-25T04:23:01.340Z,100536.41
2022-08-25T04:25:29.148Z,100540.25
2022-08-25T04:27:57.394Z,100541.44
2022-08-25T04:30:25.102Z,100542.47
2022-08-25T04:32:53.075Z,100541.44
2022-08-25T04:35:22.316Z,100538.13
2022-08-25T04:37:50.040Z,100537.84
2022-08-25T04:40:18.346Z,100543.72
2022-08-25T04:42:48.173Z,100547.53
2022-08-25T04:45:16.074Z,100539.97
2022-08-25T04:47:44.161Z,100540.31
2022-08-25T04:50:11.856Z,100536.03
2022-08-25T04:52:39.863Z,100534.25
2022-08-25T04:55:08.095Z,100544.12
2022-08-25T04:57:36.034Z,100538.47
2022-08-25T05:00:05.027Z,100541.28
2022-08-25T05:02:32.990Z,100534.41
2022-08-25T05:05:01.506Z,100535.44
2022-08-25T05:07:29.210Z,100526.44
2022-08-25T05:09:57.172Z,100526.03
2022-08-25T05:12:24.858Z,100529.81
2022-08-25T05:14:53.977Z,100530.19
2022-08-25T05:17:22.518Z,100530.41
2022-08-25T05:19:50.285Z,100525.69
2022-08-25T05:22:18.438Z,100525.03
2022-08-25T05:24:46.543Z,100528.19
2022-08-25T05:27:14.286Z,100528.91
2022-08-25T05:29:41.918Z,100539.88
2022-08-25T05:32:10.162Z,100546.09
2022-08-25T05:34:38.288Z,100545.16
2022-08-25T05:37:08.287Z,100531.72
2022-08-25T05:39:39.588Z,100533.25
2022-08-25T05:42:07.528Z,100532.59
2022-08-25T05:44:35.210Z,100530.06
2022-08-25T05:47:03.191Z,100534.09
2022-08-25T05:49:30.842Z,100532.59
2022-08-25T05:51:58.579Z,100532.69
2022-08-25T05:54:27.006Z,100535.25
2022-08-25T05:56:54.781Z,100539.38
2022-08-25T05:59:22.493Z,100536.00
2022-08-25T06:02:12.749Z,100541.41
2022-08-25T06:04:41.395Z,100532.03
2022-08-25T06:07:09.638Z,100534.78
2022-08-25T06:09:41.911Z,100533.13
2022-08-25T06:12:09.903Z,100540.81
2022-08-25T06:14:40.158Z,100540.16
2022-08-25T06:17:07.701Z,100548.34
2022-08-25T06:19:35.798Z,100544.03
2022-08-25T06:22:07.548Z,100542.50
2022-08-25T06:24:36.020Z,100539.53
2022-08-25T06:27:03.856Z,100543.28
2022-08-25T06:29:31.714Z,100550.06
2022-08-25T06:31:59.792Z,100542.97
2022-08-25T06:34:27.412Z,100543.25
2022-08-25T06:36:55.128Z,100545.94
2022-08-25T06:39:24.398Z,100545.66
2022-08-25T06:41:53.974Z,100546.50
2022-08-25T06:44:23.115Z,100541.09
2022-08-25T06:46:51.550Z,100551.50
2022-08-25T06:49:19.298Z,100554.22
2022-08-25T06:51:47.258Z,100552.59
2022-08-25T06:54:15.434Z,100545.37
2022-08-25T06:56:43.204Z,100541.59
2022-08-25T06:59:11.561Z,100541.22
2022-08-25T07:01:39.807Z,100543.16
2022-08-25T07:04:11.848Z,100550.06
2022-08-25T07:06:42.009Z,100542.03
2022-08-25T07:09:11.480Z,100545.09
2022-08-25T07:11:41.590Z,100546.19
2022-08-25T07:14:11.846Z,100548.50
2022-08-25T07:16:42.425Z,100544.25
2022-08-25T07:19:14.761Z,100546.91
2022-08-25T07:21:45.803Z,100542.69
2022-08-25T07:24:14.473Z,100541.16
2022-08-25T07:26:43.580Z,100540.28
2022-08-25T07:29:14.295Z,100545.00
2022-08-25T07:31:42.705Z,100531.00
2022-08-25T07:34:29.504Z,100530.22
2022-08-25T07:36:58.106Z,100534.25
2022-08-25T07:39:26.748Z,100531.47
2022-08-25T07:41:57.384Z,100536.06
2022-08-25T07:44:27.913Z,100529.78
2022-08-25T07:46:56.680Z,100525.66
2022-08-25T07:49:36.222Z,100524.34
2022-08-25T07:52:09.018Z,100521.75
2022-08-25T07:54:38.090Z,100530.44
2022-08-25T07:57:08.190Z,100525.25
2022-08-25T07:59:40.438Z,100522.81
2022-08-25T08:02:18.468Z,100524.06
2022-08-25T08:04:50.161Z,100521.94
2022-08-25T08:07:25.805Z,100517.12
2022-08-25T08:13:02.183Z,100524.38
2022-08-25T08:15:30.703Z,100516.47
2022-08-25T08:17:59.773Z,100512.44
2022-08-25T08:20:29.006Z,100514.00
2022-08-25T08:22:57.209Z,100512.16
2022-08-25T08:25:26.769Z,100518.25
2022-08-25T08:27:56.317Z,100507.44
2022-08-25T08:30:26.459Z,100513.47
2022-08-25T08:33:11.261Z,100510.38
2022-08-25T08:35:41.825Z,100507.91
2022-08-25T08:38:16.027Z,100506.03
2022-08-25T08:44:47.909Z,100503.84
2022-08-25T08:47:28.036Z,100498.09
2022-08-25T08:50:05.078Z,100502.38
2022-08-25T08:52:46.110Z,100497.53
2022-08-25T08:55:37.065Z,100493.69
2022-08-25T08:58:19.831Z,100494.91
2022-08-25T09:00:58.417Z,100494.06
2022-08-25T09:03:40.529Z,100492.50
2022-08-25T09:06:24.586Z,100485.31
2022-08-25T09:08:55.647Z,100483.69
2022-08-25T09:11:42.122Z,100476.97
2022-08-25T09:14:34.066Z,100471.81
2022-08-25T09:17:27.007Z,100475.97
2022-08-25T09:20:18.758Z,100471.00
2022-08-25T09:22:56.480Z,100466.19
2022-08-25T09:25:54.066Z,100465.81
2022-08-25T09:28:37.158Z,100470.97
2022-08-25T09:31:24.355Z,100467.41
2022-08-25T09:33:57.934Z,100463.50
2022-08-25T09:36:26.920Z,100459.41
2022-08-25T09:38:54.613Z,100456.91
2022-08-25T09:41:47.100Z,100456.66
2022-08-25T09:44:20.981Z,100447.25
2022-08-25T09:47:02.124Z,100444.84
2022-08-25T09:49:41.637Z,100443.25
2022-08-25T09:52:31.941Z,100430.78
2022-08-25T09:55:05.087Z,100427.84
2022-08-25T09:57:44.726Z,100433.19
2022-08-25T10:00:21.951Z,100428.53
2022-08-25T10:03:14.084Z,100420.78
2022-08-25T10:05:46.319Z,100410.94
2022-08-25T10:08:32.868Z,100413.03
2022-08-25T10:11:05.139Z,100408.31
2022-08-25T10:13:51.431Z,100412.38
2022-08-25T10:16:27.007Z,100398.66
2022-08-25T10:19:02.377Z,100396.78
2022-08-25T10:21:30.424Z,100398.34
2022-08-25T10:24:01.661Z,100391.09
2022-08-25T10:26:44.654Z,100394.75
2022-08-25T10:29:35.940Z,100393.00
2022-08-25T10:32:21.660Z,100386.22
2022-08-25T10:34:51.362Z,100375.97
2022-08-25T10:37:39.836Z,100374.72
2022-08-25T10:40:21.796Z,100374.34
2022-08-25T10:42:55.124Z,100375.28
2022-08-25T10:45:43.669Z,100362.63
2022-08-25T10:48:23.616Z,100360.41
2022-08-25T10:51:18.855Z,100362.56
2022-08-25T10:54:10.982Z,100355.59
2022-08-25T10:56:42.871Z,100349.94
2022-08-25T10:59:57.813Z,100340.38
2022-08-25T11:02:38.409Z,100333.13
2022-08-25T11:05:26.790Z,100340.00
2022-08-25T11:08:14.509Z,100327.53
2022-08-25T11:10:53.103Z,100329.34
2022-08-25T11:13:31.833Z,100338.66
2022-08-25T11:16:18.880Z,100335.72
2022-08-25T11:19:05.419Z,100326.50
2022-08-25T11:21:54.839Z,100331.06
2022-08-25T11:24:49.214Z,100326.03
2022-08-25T11:27:47.265Z,100319.91
2022-08-25T11:30:18.741Z,100318.44
2022-08-25T11:32:53.024Z,100320.34
2022-08-25T11:35:30.337Z,100310.31
2022-08-25T11:37:58.053Z,100311.13
2022-08-25T11:40:50.465Z,100308.53
2022-08-25T11:43:42.953Z,100301.34
2022-08-25T11:46:48.976Z,100299.50
2022-08-25T11:49:39.730Z,100303.06
2022-08-25T11:52:34.524Z,100303.41
2022-08-25T11:55:43.691Z,100291.59
2022-08-25T11:58:44.907Z,100298.84
2022-08-25T12:01:44.243Z,100293.22
2022-08-25T12:04:30.963Z,100282.97
2022-08-25T12:07:11.188Z,100286.12
2022-08-25T12:09:51.405Z,100283.94
2022-08-25T12:12:28.459Z,100284.00
2022-08-25T12:15:15.048Z,100279.59
2022-08-25T12:17:42.799Z,100287.44
2022-08-25T12:20:11.175Z,100286.62
2022-08-25T12:22:41.753Z,100280.94
2022-08-25T12:25:28.885Z,100288.56
2022-08-25T12:28:14.801Z,100279.38
2022-08-25T12:30:57.068Z,100283.72
2022-08-25T12:33:59.482Z,100275.72
2022-08-25T12:36:33.615Z,100281.53
2022-08-25T12:39:17.285Z,100278.59
2022-08-25T12:41:58.687Z,100286.19
2022-08-25T12:45:09.657Z,100286.00
2022-08-25T12:47:41.849Z,100283.25
2022-08-25T12:50:33.404Z,100281.03
2022-08-25T12:53:19.109Z,100270.91
2022-08-25T12:55:51.680Z,100269.62
2022-08-25T12:58:20.307Z,100272.09
2022-08-25T13:01:35.577Z,100273.56
2022-08-25T13:04:23.153Z,100265.59
2022-08-25T13:07:18.197Z,100263.13
2022-08-25T13:09:58.768Z,100268.97
2022-08-25T13:12:44.853Z,100252.53
2022-08-25T13:15:25.258Z,100254.56
2022-08-25T13:17:53.381Z,100250.50
2022-08-25T13:20:29.295Z,100253.91
2022-08-25T13:23:00.944Z,100242.00
2022-08-25T13:25:32.420Z,100249.19
2022-08-25T13:28:06.491Z,100242.44
2022-08-25T13:30:39.444Z,100239.81
2022-08-25T13:33:23.939Z,100242.59
2022-08-25T13:36:14.559Z,100238.06
2022-08-25T13:38:45.799Z,100240.81
2022-08-25T13:41:20.632Z,100232.59
2022-08-25T13:43:48.471Z,100237.19
2022-08-25T13:46:22.379Z,100227.97
2022-08-25T13:48:50.355Z,100232.19
2022-08-25T13:51:22.574Z,100231.59
2022-08-25T13:53:58.429Z,100229.22
2022-08-25T13:56:39.978Z,100225.72
2022-08-25T13:59:24.585Z,100227.37
2022-08-25T14:01:55.380Z,100225.31
2022-08-25T14:04:50.887Z,100225.03
2022-08-25T14:07:22.826Z,100231.09
2022-08-25T14:10:08.759Z,100222.47
2022-08-25T14:12:41.398Z,100222.50
2022-08-25T14:15:29.660Z,100216.59
2022-08-25T14:18:18.194Z,100213.69
2022-08-25T14:20:50.791Z,100206.94
2022-08-25T14:23:22.445Z,100214.97
2022-08-25T14:25:52.112Z,100217.50
2022-08-25T14:28:23.010Z,100208.38
2022-08-25T14:31:02.288Z,100204.94
2022-08-25T14:33:37.496Z,100200.78
2022-08-25T14:36:06.877Z,100201.28
2022-08-25T14:38:35.578Z,100207.13
2022-08-25T14:43:39.861Z,100198.16
2022-08-25T14:46:18.045Z,100201.06
2022-08-25T14:48:52.227Z,100197.66
2022-08-25T14:51:20.457Z,100195.97
2022-08-25T14:53:48.288Z,100201.53
2022-08-25T14:56:16.436Z,100204.41
2022-08-25T14:58:51.022Z,100197.06
2022-08-25T15:01:28.419Z,100198.31
2022-08-25T15:04:13.195Z,100204.75
2022-08-25T15:06:44.865Z,100201.16
2022-08-25T15:09:16.618Z,100200.78
2022-08-25T15:11:47.325Z,100198.50
2022-08-25T15:14:28.634Z,100200.50
2022-08-25T15:17:02.025Z,100196.31
2022-08-25T15:19:30.327Z,100206.37
2022-08-25T15:21:59.355Z,100208.19
2022-08-25T15:24:28.949Z,100202.03
2022-08-25T15:27:03.953Z,100202.69
2022-08-25T15:29:34.944Z,100202.09
2022-08-25T15:32:07.099Z,100206.34
2022-08-25T15:34:36.612Z,100205.00
2022-08-25T15:37:16.211Z,100202.44
2022-08-25T15:39:45.679Z,100200.44
2022-08-25T15:42:14.001Z,100202.13
2022-08-25T15:44:42.491Z,100202.94
2022-08-25T15:47:24.166Z,100211.91
2022-08-25T15:50:03.952Z,100207.81
2022-08-25T15:52:46.066Z,100201.44
2022-08-25T15:55:15.100Z,100210.37
2022-08-25T15:57:43.702Z,100202.69
2022-08-25T16:00:13.643Z,100205.03
2022-08-25T16:02:45.403Z,100200.59
2022-08-25T16:05:16.493Z,100203.50
2022-08-25T16:07:51.796Z,100201.03
2022-08-25T16:10:20.026Z,100203.16
2022-08-25T16:12:48.175Z,100200.03
2022-08-25T16:15:16.176Z,100204.41
2022-08-25T16:17:47.006Z,100208.00
2022-08-25T16:20:20.826Z,100215.00
2022-08-25T16:22:51.060Z,100212.31
2022-08-25T16:25:19.672Z,100212.91
2022-08-25T16:27:48.199Z,100213.66
2022-08-25T16:30:17.783Z,100212.00
2022-08-25T16:32:46.813Z,100209.63
2022-08-25T16:35:14.538Z,100212.06
2022-08-25T16:37:42.648Z,100205.56
2022-08-25T16:40:14.805Z,100212.94
2022-08-25T16:42:42.744Z,100216.37
2022-08-25T16:45:11.899Z,100209.91
2022-08-25T16:47:39.755Z,100212.56
2022-08-25T16:50:11.461Z,100212.59
2022-08-25T16:52:58.291Z,100211.34
2022-08-25T16:55:29.119Z,100213.69
2022-08-25T16:58:07.894Z,100220.28
2022-08-25T17:00:38.250Z,100220.72
2022-08-25T17:03:07.715Z,100219.31
2022-08-25T17:05:40.775Z,100222.34
2022-08-25T17:08:27.381Z,100222.47
2022-08-25T17:11:03.735Z,100214.84
2022-08-25T17:13:33.118Z,100226.56
2022-08-25T17:16:03.177Z,100223.03
2022-08-25T17:18:31.273Z,100225.66
2022-08-25T17:21:05.814Z,100229.31
2022-08-25T17:23:35.368Z,100225.94
2022-08-25T17:26:05.371Z,100223.16
2022-08-25T17:28:34.073Z,100223.87
2022-08-25T17:31:04.705Z,100223.97
2022-08-25T17:33:32.936Z,100224.50
2022-08-25T17:36:00.697Z,100236.87
2022-08-25T17:38:30.304Z,100225.91
2022-08-25T17:41:03.572Z,100234.06
2022-08-25T17:43:35.886Z,100230.03
2022-08-25T17:46:06.494Z,100229.91
2022-08-25T17:48:36.147Z,100225.97
2022-08-25T17:51:05.273Z,100232.03
2022-08-25T17:53:35.071Z,100231.84
2022-08-25T17:56:06.551Z,100233.72
2022-08-25T17:58:35.544Z,100236.16
2022-08-25T18:01:05.444Z,100230.84
2022-08-25T18:03:33.791Z,100231.13
2022-08-25T18:06:01.481Z,100229.72
2022-08-25T18:08:35.204Z,100233.31
2022-08-25T18:11:05.055Z,100230.28
2022-08-25T18:13:32.996Z,100239.53
2022-08-25T18:16:01.040Z,100236.16
2022-08-25T18:18:31.315Z,100240.06
2022-08-25T18:20:58.943Z,100234.34
2022-08-25T18:23:27.542Z,100237.84
2022-08-25T18:26:01.017Z,100232.88
2022-08-25T18:28:29.714Z,100232.88
2022-08-25T18:30:57.869Z,100232.19
2022-08-25T18:33:25.756Z,100236.81
2022-08-25T18:35:58.297Z,100236.03
2022-08-25T18:38:45.086Z,100236.41
2022-08-25T18:41:13.658Z,100242.94
2022-08-25T18:43:41.975Z,100243.69
2022-08-25T18:46:10.016Z,100249.88
2022-08-25T18:48:38.316Z,100245.31
2022-08-25T18:51:10.576Z,100254.53
2022-08-25T18:53:49.674Z,100244.53
2022-08-25T18:56:22.534Z,100248.34
2022-08-25T18:58:50.575Z,100249.53
2022-08-25T19:01:19.817Z,100246.09
2022-08-25T19:03:47.781Z,100246.09
2022-08-25T19:06:16.943Z,100240.34
2022-08-25T19:08:45.294Z,100240.00
2022-08-25T19:11:13.132Z,100245.38
2022-08-25T19:13:41.286Z,100244.19
2022-08-25T19:16:11.959Z,100240.37
2022-08-25T19:18:42.075Z,100240.78
2022-08-25T19:21:10.806Z,100234.28
2022-08-25T19:23:39.052Z,100236.13
2022-08-25T19:26:16.945Z,100237.72
2022-08-25T19:28:48.982Z,100246.12
2022-08-25T19:31:23.044Z,100243.81
2022-08-25T19:33:55.193Z,100234.25
2022-08-25T19:36:28.137Z,100236.53
2022-08-25T19:38:59.004Z,100230.41
2022-08-25T19:41:29.720Z,100234.63
2022-08-25T19:43:57.814Z,100236.50
2022-08-25T19:46:32.130Z,100237.63
2022-08-25T19:49:08.062Z,100236.06
2022-08-25T19:51:38.924Z,100237.16
2022-08-25T19:54:09.046Z,100234.41
2022-08-25T19:56:44.041Z,100232.94
2022-08-25T19:59:25.463Z,100241.75
2022-08-25T20:01:54.684Z,100230.31
2022-08-25T20:04:24.197Z,100238.19
2022-08-25T20:06:55.542Z,100229.44
2022-08-25T20:09:39.206Z,100234.41
2022-08-25T20:12:10.499Z,100229.06
2022-08-25T20:14:38.671Z,100227.41
2022-08-25T20:17:23.092Z,100225.19
2022-08-25T20:19:56.056Z,100229.00
2022-08-25T20:22:29.686Z,100227.09
2022-08-25T20:25:07.339Z,100225.53
2022-08-25T20:27:45.024Z,100221.34
2022-08-25T20:30:20.642Z,100231.69
2022-08-25T20:32:52.142Z,100223.63
2022-08-25T20:35:26.470Z,100229.75
2022-08-25T20:37:56.944Z,100230.84
2022-08-25T20:40:26.214Z,100230.94
2022-08-25T20:42:54.970Z,100227.44
2022-08-25T20:45:23.399Z,100224.75
2022-08-25T20:47:52.390Z,100232.75
2022-08-25T20:50:20.718Z,100233.44
2022-08-25T20:52:48.670Z,100225.03
2022-08-25T20:55:18.826Z,100227.72
2022-08-25T20:57:47.128Z,100222.09
2022-08-25T21:00:16.560Z,100222.47
2022-08-25T21:02:46.344Z,100226.28
2022-08-25T21:05:14.551Z,100231.88
2022-08-25T21:07:42.735Z,100226.44
2022-08-25T21:10:14.523Z,100225.72
2022-08-25T21:12:45.066Z,100221.22
2022-08-25T21:15:17.039Z,100228.81
2022-08-25T21:17:50.198Z,100227.41
2022-08-25T21:20:18.486Z,100228.50
2022-08-25T21:22:46.265Z,100226.00
2022-08-25T21:25:14.479Z,100235.78
2022-08-25T21:27:43.474Z,100228.75
2022-08-25T21:30:12.389Z,100233.56
2022-08-25T21:32:40.115Z,100234.03
2022-08-25T21:35:23.879Z,100237.00
2022-08-25T21:37:53.887Z,100233.09
2022-08-25T21:40:23.145Z,100235.00
2022-08-25T21:42:52.491Z,100236.47
2022-08-25T21:45:21.989Z,100229.66
2022-08-25T21:47:50.286Z,100233.47
2022-08-25T21:50:20.387Z,100226.19
2022-08-25T21:52:48.198Z,100230.81
2022-08-25T21:55:23.435Z,100233.53
2022-08-25T21:57:51.524Z,100226.19
2022-08-25T22:00:21.273Z,100231.69
2022-08-25T22:02:50.044Z,100222.81
2022-08-25T22:05:18.263Z,100222.78
2022-08-25T22:07:45.931Z,100228.00
2022-08-25T22:10:16.777Z,100233.75
2022-08-25T22:12:48.931Z,100225.72
2022-08-25T22:15:18.395Z,100235.53
2022-08-25T22:17:48.005Z,100245.53
2022-08-25T22:20:18.422Z,100234.00
2022-08-25T22:22:46.426Z,100227.19
2022-08-25T22:25:14.555Z,100225.22
2022-08-25T22:27:42.509Z,100227.88
2022-08-25T22:30:11.464Z,100228.28
2022-08-25T22:32:39.236Z,100222.09
2022-08-25T22:35:08.037Z,100220.75
2022-08-25T22:37:37.643Z,100223.53
2022-08-25T22:40:06.286Z,100212.72
2022-08-25T22:42:33.999Z,100214.84
2022-08-25T22:45:02.016Z,100205.12
2022-08-25T22:47:31.261Z,100212.03
2022-08-25T22:49:59.239Z,100209.13
2022-08-25T22:52:33.334Z,100204.38
2022-08-25T22:55:02.993Z,100198.06
2022-08-25T22:57:31.676Z,100205.72
2022-08-25T22:59:59.442Z,100197.31
2022-08-25T23:02:30.497Z,100187.16
2022-08-25T23:05:00.949Z,100184.50
2022-08-25T23:07:29.150Z,100184.62
2022-08-25T23:09:59.786Z,100174.84
2022-08-25T23:12:27.815Z,100178.59
2022-08-25T23:14:55.933Z,100169.44
2022-08-25T23:17:23.614Z,100177.88
2022-08-25T23:19:51.620Z,100173.59
2022-08-25T23:22:19.869Z,100193.97
2022-08-25T23:24:52.014Z,100179.25
2022-08-25T23:27:21.920Z,100178.47
2022-08-25T23:29:50.230Z,100180.88
2022-08-25T23:32:18.529Z,100191.12
2022-08-25T23:34:47.342Z,100195.22
2022-08-25T23:37:18.308Z,100182.75
2022-08-25T23:39:49.898Z,100188.16
2022-08-25T23:42:19.853Z,100189.69
2022-08-25T23:44:49.220Z,100185.75
2022-08-25T23:47:18.570Z,100182.41
2022-08-25T23:49:48.287Z,100192.00
2022-08-25T23:52:17.726Z,100188.91
2022-08-25T23:54:46.163Z,100182.97
2022-08-25T23:57:14.061Z,100185.91
2022-08-25T23:59:43.312Z,100190.13
